Albertson, North Carolina
Current Conditions -  °F | °C
As of 10:15 AM on Thursday 18 Dec 2014 (Local Time) from KDPL Reporting Station
Clear Clear  
Wind Chill: 42°   Ceiling: Unl
Heat Index: 45°   Visibility: 10mi
Dew Point: 30°   Wind: 6mph
Humidity: 57%   Direction: 50°NE
Pressure: 30.2"   Gusts: NA
Location:  35.11°N, 77.82°W
Report Text: KDPL 181515Z AUTO 05005KT 10SM CLR 07/M01 A3020 RMK AO2 T00721009
Loading
Personal Weather Stations






























Interactive Weather Map New forecast layout! Learn more

10-Day Weather Forecast

Advertisements
Track Severe Weather on mobile